Carrsville, Kentucky
Current Conditions -  °F | °C
As of 4:55 PM on Tuesday 27 Jan 2015 (Local Time) from K5M9 Reporting Station
Overcast Overcast  
Wind Chill: 29°   Ceiling: 2200
Heat Index: 36°   Visibility: 10mi
Dew Point: 29°   Wind: 8mph
Humidity: 78%   Direction: 30°NNE
Pressure: 30.18"   Gusts: NA
Location:  37.1328°N, 88.3656°W
Report Text: K5M9 272255Z AUTO 03007KT 10SM BKN022 BKN027 OVC035 02/M01 A3018 RMK AO2 T00201015
Loading
Personal Weather Stations






























Interactive Weather Map New forecast layout! Learn more

10-Day Weather Forecast

Advertisements
Track Severe Weather on mobile